Time;durP1;ratioP1;P1;durP2;ratioP2;P2;SDS_P1;SDS_P2;PMS_P1;PMS_P2;Temp;Humidity;BMP_temperature;BMP_pressure;BME280_temperature;BME280_humidity;BME280_pressure;Samples;Min_cycle;Max_cycle;Signal;HPM_P1;HPM_P2
2023/02/03 00:02:59;;;;;;;5.80;3.33;;;22.40;39.00;;;;;;6106202;28;81171;-57
2023/02/03 00:06:00;;;;;;;6.53;3.50;;;22.40;39.00;;;;;;6117830;28;81244;-56
2023/02/03 00:09:00;;;;;;;7.03;3.88;;;22.40;39.10;;;;;;6114072;28;80872;-56
2023/02/03 00:12:01;;;;;;;6.15;3.42;;;22.40;39.00;;;;;;6127281;28;81529;-56
2023/02/03 00:15:01;;;;;;;7.22;3.92;;;22.40;38.90;;;;;;6122707;28;80285;-56
2023/02/03 00:18:02;;;;;;;6.78;3.60;;;22.40;38.80;;;;;;6104479;28;83705;-48
2023/02/03 00:21:02;;;;;;;7.07;4.13;;;22.40;38.90;;;;;;6127035;28;81620;-49
2023/02/03 00:24:03;;;;;;;6.88;3.42;;;22.40;39.40;;;;;;6134127;28;80554;-49
2023/02/03 00:27:03;;;;;;;4.50;3.08;;;22.40;38.80;;;;;;6116976;28;80786;-48
2023/02/03 00:30:04;;;;;;;6.90;3.90;;;22.40;38.80;;;;;;6132530;28;81409;-51
2023/02/03 00:33:04;;;;;;;5.57;3.22;;;22.40;38.90;;;;;;6116787;28;80316;-48
2023/02/03 00:36:05;;;;;;;6.10;3.22;;;22.40;39.20;;;;;;6111958;28;81448;-52
2023/02/03 00:39:06;;;;;;;6.28;3.25;;;22.30;38.90;;;;;;6120106;28;81864;-50
2023/02/03 00:42:06;;;;;;;5.57;3.20;;;22.30;38.90;;;;;;6116051;28;80454;-48
2023/02/03 00:45:07;;;;;;;6.13;3.88;;;22.30;38.90;;;;;;6115740;28;81244;-51
2023/02/03 00:48:09;;;;;;;5.13;3.40;;;22.30;38.90;;;;;;6112642;28;83320;-48
2023/02/03 00:51:10;;;;;;;7.55;4.13;;;22.30;38.90;;;;;;6113526;28;81374;-49
2023/02/03 00:54:12;;;;;;;5.45;3.17;;;22.30;38.90;;;;;;6131520;28;81127;-62
2023/02/03 00:57:12;;;;;;;6.30;3.50;;;22.30;38.80;;;;;;6133954;28;83135;-62
2023/02/03 01:00:13;;;;;;;5.97;3.40;;;22.30;38.80;;;;;;6123343;28;80760;-61
2023/02/03 01:03:14;;;;;;;5.78;3.15;;;22.30;38.80;;;;;;6134635;28;80893;-63
2023/02/03 01:06:14;;;;;;;6.13;3.35;;;22.30;38.80;;;;;;6112742;28;80695;-62
2023/02/03 01:09:15;;;;;;;4.97;3.10;;;22.30;38.80;;;;;;6133194;28;82176;-60
2023/02/03 01:12:15;;;;;;;5.30;3.47;;;22.30;38.80;;;;;;6113945;28;82321;-61
2023/02/03 01:15:16;;;;;;;5.50;3.03;;;22.30;38.80;;;;;;6119452;28;82689;-63
2023/02/03 01:18:16;;;;;;;6.55;4.05;;;22.30;38.90;;;;;;6119490;28;80498;-62
2023/02/03 01:21:18;;;;;;;6.20;3.35;;;22.20;38.80;;;;;;6128105;28;82528;-63
2023/02/03 01:24:18;;;;;;;5.90;3.42;;;22.30;38.90;;;;;;6113025;28;80692;-63
2023/02/03 01:27:19;;;;;;;5.22;3.05;;;22.20;38.90;;;;;;6128833;28;80500;-62
2023/02/03 01:30:19;;;;;;;6.68;3.80;;;22.20;38.90;;;;;;6131058;28;80463;-61
2023/02/03 01:33:20;;;;;;;6.13;3.03;;;22.20;38.90;;;;;;6150237;28;83111;-62
2023/02/03 01:36:22;;;;;;;5.47;3.13;;;22.20;39.00;;;;;;6128423;28;80308;-63
2023/02/03 01:39:25;;;;;;;6.45;3.33;;;22.20;39.00;;;;;;6127925;28;80302;-62
2023/02/03 01:42:25;;;;;;;7.18;3.30;;;22.20;39.00;;;;;;6130643;28;81603;-62
2023/02/03 01:45:26;;;;;;;5.50;3.10;;;22.20;39.00;;;;;;6133423;28;81829;-61
2023/02/03 01:48:26;;;;;;;5.03;3.33;;;22.20;39.00;;;;;;6149301;28;80288;-61
2023/02/03 01:51:27;;;;;;;5.60;3.25;;;22.20;39.00;;;;;;6128036;28;81331;-62
2023/02/03 01:54:27;;;;;;;4.75;2.90;;;22.20;39.10;;;;;;6140611;28;83325;-61
2023/02/03 01:57:28;;;;;;;5.60;3.13;;;22.20;39.10;;;;;;6106780;28;80534;-62
2023/02/03 02:00:28;;;;;;;4.95;3.13;;;22.20;39.10;;;;;;6118326;28;83584;-61
2023/02/03 02:03:29;;;;;;;5.45;3.28;;;22.10;39.10;;;;;;6120249;28;80590;-61
2023/02/03 02:06:29;;;;;;;5.82;3.58;;;22.20;39.10;;;;;;6128814;28;87113;-62
2023/02/03 02:09:30;;;;;;;6.03;3.22;;;22.20;39.20;;;;;;6130195;28;82017;-62
2023/02/03 02:12:30;;;;;;;5.43;2.90;;;22.10;39.20;;;;;;6153857;28;80233;-62
2023/02/03 02:15:31;;;;;;;4.55;2.85;;;22.20;39.30;;;;;;6156182;28;82450;-62
2023/02/03 02:18:31;;;;;;;4.40;2.70;;;22.10;39.20;;;;;;6126808;28;82045;-63
2023/02/03 02:21:32;;;;;;;3.60;2.63;;;22.10;39.30;;;;;;6157636;28;83175;-63
2023/02/03 02:24:33;;;;;;;7.68;3.40;;;22.10;39.30;;;;;;6129991;28;81098;-63
2023/02/03 02:27:33;;;;;;;6.15;3.40;;;22.10;39.30;;;;;;6132242;28;81072;-62
2023/02/03 02:30:34;;;;;;;5.65;3.20;;;22.10;39.30;;;;;;6154454;28;82945;-63
2023/02/03 02:33:35;;;;;;;4.93;2.80;;;22.10;39.30;;;;;;6129607;28;83726;-63
2023/02/03 02:36:36;;;;;;;3.60;2.67;;;22.10;39.40;;;;;;6138878;28;83404;-60
2023/02/03 02:39:37;;;;;;;5.50;2.90;;;22.10;39.30;;;;;;6134891;28;82017;-61
2023/02/03 02:42:38;;;;;;;4.22;2.83;;;22.10;39.30;;;;;;6149203;28;82827;-61
2023/02/03 02:45:38;;;;;;;4.65;3.03;;;22.10;39.40;;;;;;6146314;28;80636;-60
2023/02/03 02:48:39;;;;;;;6.57;3.45;;;22.10;39.40;;;;;;6126076;28;83534;-61
2023/02/03 02:51:39;;;;;;;4.97;2.55;;;22.10;39.30;;;;;;6118270;28;80912;-63
2023/02/03 02:54:40;;;;;;;4.72;3.28;;;22.10;39.80;;;;;;6118447;28;81417;-63
2023/02/03 02:57:41;;;;;;;5.95;3.13;;;22.10;39.80;;;;;;6126231;28;83977;-62
2023/02/03 03:00:42;;;;;;;6.93;3.28;;;22.10;39.70;;;;;;6121462;28;83363;-64
2023/02/03 03:03:44;;;;;;;6.72;3.67;;;22.10;39.70;;;;;;6106730;28;80396;-63
2023/02/03 03:06:44;;;;;;;5.30;3.28;;;22.10;39.80;;;;;;6114496;28;80426;-62
2023/02/03 03:09:45;;;;;;;3.65;2.50;;;22.10;40.00;;;;;;6120986;28;80263;-62
2023/02/03 03:12:45;;;;;;;6.90;3.45;;;22.10;40.00;;;;;;6139612;28;81813;-62
2023/02/03 03:15:46;;;;;;;8.40;3.00;;;22.10;39.90;;;;;;6129498;28;83318;-62
2023/02/03 03:18:47;;;;;;;6.45;3.70;;;22.10;39.80;;;;;;6132007;28;81366;-62
2023/02/03 03:21:48;;;;;;;5.75;3.58;;;22.00;39.70;;;;;;6132736;28;80766;-63
2023/02/03 03:24:48;;;;;;;6.32;3.22;;;22.00;39.60;;;;;;6122137;28;81528;-63
2023/02/03 03:27:49;;;;;;;5.00;2.97;;;22.00;39.80;;;;;;6110283;28;80679;-63
2023/02/03 03:30:50;;;;;;;5.97;3.47;;;22.00;39.60;;;;;;6126547;28;80616;-62
2023/02/03 03:33:50;;;;;;;7.85;3.42;;;22.00;39.50;;;;;;6105915;28;81737;-63
2023/02/03 03:36:51;;;;;;;5.97;3.08;;;22.00;39.40;;;;;;6109107;28;81083;-61
2023/02/03 03:39:51;;;;;;;5.07;2.97;;;22.00;39.30;;;;;;6105995;28;81081;-64
2023/02/03 03:42:52;;;;;;;4.88;2.88;;;22.00;39.30;;;;;;6124781;28;80663;-63
2023/02/03 03:45:54;;;;;;;5.35;3.13;;;22.00;39.40;;;;;;6115110;28;82159;-62
2023/02/03 03:48:54;;;;;;;4.82;3.00;;;22.00;39.30;;;;;;6124850;28;80573;-61
2023/02/03 03:51:55;;;;;;;4.57;2.70;;;22.00;39.30;;;;;;6125473;28;80439;-63
2023/02/03 03:54:55;;;;;;;5.95;3.33;;;22.00;39.30;;;;;;6105277;28;81498;-63
2023/02/03 03:57:56;;;;;;;6.55;3.28;;;22.00;39.30;;;;;;6110852;28;80630;-63
2023/02/03 04:00:56;;;;;;;4.03;2.60;;;22.00;39.30;;;;;;6105291;28;81904;-60
2023/02/03 04:03:57;;;;;;;9.93;3.08;;;22.00;39.40;;;;;;6104525;28;80996;-60
2023/02/03 04:06:57;;;;;;;4.70;2.78;;;22.00;39.30;;;;;;6117532;28;80516;-61
2023/02/03 04:09:58;;;;;;;4.78;3.10;;;21.90;39.20;;;;;;6108633;28;80463;-62
2023/02/03 04:12:58;;;;;;;3.80;2.72;;;21.90;39.20;;;;;;6121740;28;81272;-62
2023/02/03 04:15:59;;;;;;;6.47;3.17;;;21.90;39.30;;;;;;6112198;28;80394;-62
2023/02/03 04:18:59;;;;;;;6.57;3.30;;;22.00;39.00;;;;;;6131692;28;80276;-62
2023/02/03 04:22:00;;;;;;;4.80;3.05;;;22.10;38.90;;;;;;6140999;28;80391;-64
2023/02/03 04:25:00;;;;;;;5.20;3.10;;;22.10;38.70;;;;;;6128716;28;81099;-62
2023/02/03 04:28:01;;;;;;;4.40;2.60;;;22.10;38.70;;;;;;6112979;28;80613;-62
2023/02/03 04:31:01;;;;;;;8.13;3.38;;;22.20;38.50;;;;;;6131343;28;81381;-63
2023/02/03 04:34:02;;;;;;;5.10;2.95;;;22.20;38.40;;;;;;6105137;28;82024;-62
2023/02/03 04:37:02;;;;;;;4.78;2.80;;;22.30;38.20;;;;;;6116960;28;80414;-61
2023/02/03 04:40:03;;;;;;;5.55;3.17;;;22.30;38.20;;;;;;6125209;28;81248;-63
2023/02/03 04:43:03;;;;;;;5.63;2.83;;;22.40;38.20;;;;;;6123020;28;80039;-62
2023/02/03 04:46:04;;;;;;;6.10;3.00;;;22.40;38.20;;;;;;6108396;28;80368;-61
2023/02/03 04:49:04;;;;;;;5.47;2.78;;;22.40;38.20;;;;;;6116280;28;88238;-62
2023/02/03 04:52:05;;;;;;;6.85;3.40;;;22.50;38.20;;;;;;6111347;28;81429;-62
2023/02/03 04:55:05;;;;;;;5.35;3.47;;;22.50;38.10;;;;;;6139808;28;80741;-63
2023/02/03 04:58:06;;;;;;;6.03;3.33;;;22.50;38.00;;;;;;6126946;28;80190;-62
2023/02/03 05:01:07;;;;;;;3.00;2.20;;;22.50;37.80;;;;;;6119540;28;81234;-63
2023/02/03 05:04:07;;;;;;;7.07;3.05;;;22.50;37.80;;;;;;6125983;28;80406;-61
2023/02/03 05:07:08;;;;;;;4.22;2.60;;;22.60;37.80;;;;;;6144740;28;80374;-61
2023/02/03 05:10:08;;;;;;;6.03;3.45;;;22.60;37.60;;;;;;6128952;28;80912;-59
2023/02/03 05:13:09;;;;;;;3.75;2.55;;;22.60;37.50;;;;;;6124610;28;80805;-58
2023/02/03 05:16:10;;;;;;;4.68;3.03;;;22.60;37.40;;;;;;6117815;28;80473;-59
2023/02/03 05:19:10;;;;;;;6.00;3.10;;;22.60;37.50;;;;;;6108792;28;80930;-59
2023/02/03 05:22:11;;;;;;;6.43;3.20;;;22.60;37.30;;;;;;6111905;28;80498;-59
2023/02/03 05:25:11;;;;;;;6.97;3.13;;;22.70;37.50;;;;;;6108828;28;81555;-58
2023/02/03 05:28:12;;;;;;;6.35;3.45;;;22.70;37.40;;;;;;6140189;28;80350;-59
2023/02/03 05:31:12;;;;;;;7.57;3.30;;;22.70;37.90;;;;;;6140110;28;81627;-59
2023/02/03 05:34:13;;;;;;;5.97;3.15;;;22.70;37.70;;;;;;6126136;28;80825;-58
2023/02/03 05:37:13;;;;;;;8.73;3.75;;;22.70;37.60;;;;;;6142794;28;80492;-59
2023/02/03 05:43:33;;;;;;;6.82;3.13;;;22.80;38.70;;;;;;6118555;28;80395;-58
2023/02/03 05:46:34;;;;;;;8.10;3.05;;;22.70;38.80;;;;;;6124651;28;80851;-59
2023/02/03 05:49:34;;;;;;;7.80;3.25;;;22.80;38.90;;;;;;6114288;28;80479;-59
2023/02/03 05:52:35;;;;;;;5.38;3.38;;;22.80;38.80;;;;;;6102395;28;82148;-58
2023/02/03 05:55:35;;;;;;;4.97;2.83;;;22.90;38.70;;;;;;6101255;28;80583;-59
2023/02/03 05:58:36;;;;;;;6.45;3.60;;;22.90;38.70;;;;;;6095808;28;81975;-57
2023/02/03 06:01:36;;;;;;;4.82;3.33;;;22.90;38.30;;;;;;6086633;28;81111;-56
2023/02/03 06:04:37;;;;;;;7.97;3.47;;;22.90;38.40;;;;;;6101615;28;85591;-59
2023/02/03 06:07:37;;;;;;;7.85;3.65;;;22.90;38.30;;;;;;6104682;28;81442;-60
2023/02/03 06:10:38;;;;;;;5.53;3.03;;;22.80;38.00;;;;;;6111119;28;82046;-58
2023/02/03 06:13:38;;;;;;;5.88;3.33;;;22.80;37.50;;;;;;6122948;28;80660;-60
2023/02/03 06:16:39;;;;;;;11.73;3.78;;;22.80;38.00;;;;;;6119849;28;81036;-60
2023/02/03 06:19:40;;;;;;;8.27;3.55;;;22.70;37.60;;;;;;6122150;28;80284;-59
2023/02/03 06:22:40;;;;;;;6.45;3.53;;;22.70;37.10;;;;;;6105684;28;81099;-58
2023/02/03 06:25:41;;;;;;;10.90;4.00;;;22.70;37.10;;;;;;6117166;28;80996;-58
2023/02/03 06:28:41;;;;;;;8.13;3.80;;;22.60;37.20;;;;;;6126740;28;81066;-57
2023/02/03 06:31:42;;;;;;;8.27;3.40;;;22.60;37.00;;;;;;6121215;28;82080;-58
2023/02/03 06:34:42;;;;;;;7.13;3.58;;;22.50;36.80;;;;;;6110765;28;87230;-58
2023/02/03 06:37:43;;;;;;;9.00;3.55;;;22.40;36.70;;;;;;6114462;28;85237;-61
2023/02/03 06:40:44;;;;;;;6.82;3.70;;;22.40;36.80;;;;;;6123998;28;81592;-61
2023/02/03 06:43:44;;;;;;;7.93;3.67;;;22.30;37.50;;;;;;6128509;28;80741;-60
2023/02/03 06:46:45;;;;;;;6.25;3.60;;;22.40;36.50;;;;;;6126531;28;80604;-59
2023/02/03 06:49:45;;;;;;;8.90;3.70;;;22.30;36.60;;;;;;6148667;28;82276;-58
2023/02/03 06:52:46;;;;;;;8.27;3.90;;;22.30;36.80;;;;;;6133356;28;80240;-58
2023/02/03 06:55:46;;;;;;;13.10;4.03;;;22.20;36.70;;;;;;6122494;28;82200;-57
2023/02/03 06:58:47;;;;;;;8.80;4.45;;;22.20;36.70;;;;;;6122574;28;81402;-59
2023/02/03 07:01:48;;;;;;;9.10;3.83;;;22.20;36.40;;;;;;6113903;28;80860;-60
2023/02/03 07:04:48;;;;;;;8.07;3.85;;;22.20;36.30;;;;;;6127909;28;80932;-58
2023/02/03 07:07:49;;;;;;;9.57;3.60;;;22.10;36.20;;;;;;6136198;28;81953;-58
2023/02/03 07:10:49;;;;;;;6.15;3.72;;;22.10;36.10;;;;;;6105566;28;83160;-58
2023/02/03 07:13:50;;;;;;;7.40;4.15;;;22.10;36.00;;;;;;6101083;28;81411;-58
2023/02/03 07:16:50;;;;;;;7.75;3.78;;;22.10;36.10;;;;;;5995809;28;84971;-59
2023/02/03 07:19:51;;;;;;;7.35;3.55;;;22.00;35.80;;;;;;6111265;28;80789;-59
2023/02/03 07:22:52;;;;;;;11.05;4.07;;;22.00;35.80;;;;;;6105089;28;83743;-58
2023/02/03 07:25:52;;;;;;;7.97;4.07;;;22.00;35.70;;;;;;6108152;28;80440;-59
2023/02/03 07:28:53;;;;;;;11.10;4.75;;;22.00;35.60;;;;;;6128340;28;80252;-59
2023/02/03 07:31:53;;;;;;;7.95;4.28;;;22.00;35.60;;;;;;6107110;28;80480;-58
2023/02/03 07:34:54;;;;;;;7.78;3.67;;;22.00;35.90;;;;;;6120542;28;80693;-58
2023/02/03 07:37:54;;;;;;;7.43;3.90;;;22.00;35.80;;;;;;6117626;28;81259;-59
2023/02/03 07:40:55;;;;;;;7.05;3.85;;;22.00;35.80;;;;;;6103088;28;81578;-58
2023/02/03 07:43:55;;;;;;;8.63;3.83;;;22.00;35.50;;;;;;6117372;28;80342;-59
2023/02/03 07:46:56;;;;;;;12.88;3.90;;;21.90;35.50;;;;;;6117684;28;81280;-59
2023/02/03 07:49:57;;;;;;;8.90;3.60;;;21.90;36.30;;;;;;6111058;28;81421;-58
2023/02/03 07:52:57;;;;;;;10.45;3.95;;;21.90;35.50;;;;;;6119841;28;82963;-59
2023/02/03 07:55:58;;;;;;;13.77;3.58;;;21.90;35.60;;;;;;6107638;28;80656;-59
2023/02/03 07:58:58;;;;;;;12.90;4.22;;;21.90;35.60;;;;;;6106640;28;86989;-59
2023/02/03 08:01:59;;;;;;;7.57;3.97;;;21.90;35.40;;;;;;6110988;28;80576;-60
2023/02/03 08:04:59;;;;;;;11.70;3.92;;;21.90;35.20;;;;;;6083908;28;83784;-60
2023/02/03 08:08:00;;;;;;;6.15;3.53;;;21.90;35.30;;;;;;6107041;28;80467;-59
2023/02/03 08:11:00;;;;;;;7.03;3.92;;;21.90;35.50;;;;;;6115143;28;82181;-59
2023/02/03 08:14:01;;;;;;;10.70;3.78;;;21.90;35.40;;;;;;6112559;28;80489;-60
2023/02/03 08:17:01;;;;;;;22.65;4.43;;;21.90;35.30;;;;;;6125802;28;85993;-60
2023/02/03 08:20:02;;;;;;;10.60;3.60;;;21.90;35.40;;;;;;6109736;28;84148;-62
2023/02/03 08:23:03;;;;;;;11.15;3.63;;;21.90;35.50;;;;;;6108453;28;80408;-60
2023/02/03 08:26:03;;;;;;;8.15;3.75;;;21.90;35.00;;;;;;6113189;28;81070;-60
2023/02/03 08:29:04;;;;;;;7.43;3.65;;;21.90;34.90;;;;;;6119509;28;80524;-61
2023/02/03 08:32:07;;;;;;;5.60;3.50;;;21.90;34.90;;;;;;6120282;28;80925;-49
2023/02/03 08:35:08;;;;;;;6.20;3.35;;;21.90;34.70;;;;;;6109711;28;83716;-49
2023/02/03 08:38:08;;;;;;;6.18;3.35;;;21.90;34.70;;;;;;6109675;28;80835;-48
2023/02/03 08:41:09;;;;;;;5.45;3.17;;;22.00;34.50;;;;;;6116248;28;80253;-50
2023/02/03 08:44:09;;;;;;;6.97;3.50;;;22.00;34.30;;;;;;6131162;28;80423;-53
2023/02/03 08:47:10;;;;;;;4.78;2.75;;;22.00;34.10;;;;;;6121444;28;83360;-48
2023/02/03 08:50:10;;;;;;;5.60;3.17;;;22.10;34.00;;;;;;6118403;28;81398;-49
2023/02/03 08:53:11;;;;;;;6.18;3.70;;;22.10;34.00;;;;;;6121518;28;81376;-50
2023/02/03 08:56:12;;;;;;;7.18;3.22;;;22.20;33.80;;;;;;6137327;28;80401;-49
2023/02/03 08:59:13;;;;;;;8.88;3.40;;;22.20;33.70;;;;;;6108822;28;81534;-47
2023/02/03 09:02:13;;;;;;;15.45;4.20;;;22.20;33.60;;;;;;6111326;28;80920;-46
2023/02/03 09:05:16;;;;;;;4.60;3.03;;;22.30;33.70;;;;;;6108337;28;80243;-48
2023/02/03 09:08:17;;;;;;;7.63;3.90;;;22.30;33.20;;;;;;6116534;28;80428;-53
2023/02/03 09:11:17;;;;;;;6.07;2.97;;;22.30;33.40;;;;;;6107653;28;84120;-49
2023/02/03 09:14:18;;;;;;;7.82;3.55;;;22.40;33.10;;;;;;6109339;28;80876;-50
2023/02/03 09:17:18;;;;;;;16.63;4.25;;;22.40;33.00;;;;;;6100183;28;80377;-49
2023/02/03 09:20:19;;;;;;;9.60;3.85;;;22.40;32.80;;;;;;6110912;28;80872;-49
2023/02/03 09:23:20;;;;;;;10.20;3.42;;;22.40;32.70;;;;;;6106554;28;81898;-51
2023/02/03 09:26:20;;;;;;;8.55;3.75;;;22.40;33.00;;;;;;6124117;28;81597;-50
2023/02/03 09:29:22;;;;;;;7.97;3.25;;;22.50;32.80;;;;;;6132615;28;80284;-49
2023/02/03 09:32:22;;;;;;;6.47;3.33;;;22.50;32.80;;;;;;6119603;28;80672;-51
2023/02/03 09:35:23;;;;;;;7.93;3.58;;;22.50;32.50;;;;;;6120587;28;80025;-48
2023/02/03 09:38:23;;;;;;;7.80;3.85;;;22.50;32.70;;;;;;6112555;28;81333;-47
2023/02/03 09:41:24;;;;;;;11.93;4.00;;;22.50;32.30;;;;;;6118952;28;80619;-51
2023/02/03 09:44:24;;;;;;;6.80;3.90;;;22.60;32.40;;;;;;6117150;28;80519;-48
2023/02/03 09:47:25;;;;;;;8.45;4.07;;;22.60;32.30;;;;;;6120925;28;81469;-59
2023/02/03 09:50:25;;;;;;;6.75;4.00;;;22.60;32.50;;;;;;6125060;28;87360;-59
2023/02/03 09:53:26;;;;;;;10.07;4.20;;;22.60;32.30;;;;;;6115464;28;81794;-60
2023/02/03 09:56:26;;;;;;;6.60;4.07;;;22.60;32.20;;;;;;6116393;28;80584;-61
2023/02/03 09:59:27;;;;;;;5.65;3.35;;;22.60;32.10;;;;;;6118347;28;80988;-60
2023/02/03 10:02:27;;;;;;;7.28;3.53;;;22.60;32.00;;;;;;6105344;28;82043;-60
2023/02/03 10:05:28;;;;;;;7.82;3.88;;;22.60;31.90;;;;;;6105934;28;80410;-60
2023/02/03 10:08:28;;;;;;;8.00;3.67;;;22.60;31.70;;;;;;6106732;28;80533;-60
2023/02/03 10:11:29;;;;;;;5.85;3.63;;;22.60;31.80;;;;;;6108102;28;81378;-60
2023/02/03 10:14:29;;;;;;;11.45;3.85;;;22.60;31.90;;;;;;6125359;28;80435;-60
2023/02/03 10:17:30;;;;;;;8.40;3.72;;;22.60;31.80;;;;;;6121776;28;82804;-60
2023/02/03 10:20:32;;;;;;;8.90;4.10;;;22.60;32.00;;;;;;6123128;28;80529;-60
2023/02/03 10:23:32;;;;;;;10.30;4.13;;;22.60;32.20;;;;;;6102352;28;86257;-60
2023/02/03 10:26:33;;;;;;;9.85;3.92;;;22.70;32.20;;;;;;6129240;28;84723;-59
2023/02/03 10:29:33;;;;;;;6.63;4.07;;;22.70;32.20;;;;;;6121913;28;80918;-59
2023/02/03 10:32:34;;;;;;;5.55;3.33;;;22.70;32.20;;;;;;6145105;28;80368;-58
2023/02/03 10:35:35;;;;;;;6.25;3.65;;;22.70;32.10;;;;;;6116361;28;80681;-59
2023/02/03 10:38:35;;;;;;;9.85;3.83;;;22.70;32.20;;;;;;6127267;28;80300;-59
2023/02/03 10:41:36;;;;;;;7.18;3.28;;;22.70;32.10;;;;;;6125900;28;85731;-59
2023/02/03 10:44:37;;;;;;;8.32;3.47;;;22.70;32.90;;;;;;6110328;28;80401;-55
2023/02/03 10:47:37;;;;;;;9.60;3.80;;;22.70;32.20;;;;;;6105368;28;80174;-58
2023/02/03 10:50:38;;;;;;;10.75;3.42;;;22.70;32.30;;;;;;6117376;28;80503;-59
2023/02/03 10:53:38;;;;;;;5.60;3.20;;;22.70;32.80;;;;;;6113103;28;85336;-60
2023/02/03 10:56:39;;;;;;;5.60;3.35;;;22.70;32.60;;;;;;6119564;28;86111;-59
2023/02/03 10:59:39;;;;;;;6.70;3.10;;;22.70;32.80;;;;;;6123584;28;80285;-58
2023/02/03 11:02:40;;;;;;;4.50;3.10;;;22.70;32.70;;;;;;6115239;28;81415;-59
2023/02/03 11:05:40;;;;;;;7.47;3.25;;;22.70;32.70;;;;;;6121200;28;80451;-60
2023/02/03 11:08:41;;;;;;;7.07;2.85;;;22.70;32.70;;;;;;6123262;28;85276;-59
2023/02/03 11:11:41;;;;;;;6.25;3.42;;;22.70;33.40;;;;;;6124036;28;83153;-60
2023/02/03 11:14:43;;;;;;;8.80;3.50;;;22.70;32.60;;;;;;6112758;28;82035;-59
2023/02/03 11:17:43;;;;;;;6.93;4.10;;;22.70;32.50;;;;;;6102559;28;83246;-60
2023/02/03 11:20:44;;;;;;;6.93;3.08;;;22.70;32.50;;;;;;6103119;28;83900;-60
2023/02/03 11:23:44;;;;;;;6.78;3.70;;;22.70;32.40;;;;;;6110798;28;80708;-59
2023/02/03 11:26:45;;;;;;;7.15;3.60;;;22.70;32.40;;;;;;6127555;28;80547;-59
2023/02/03 11:29:45;;;;;;;9.18;4.35;;;22.70;32.40;;;;;;6124835;28;80726;-60
2023/02/03 11:32:46;;;;;;;7.15;3.67;;;22.70;32.60;;;;;;6121572;28;81687;-59
2023/02/03 11:35:46;;;;;;;7.60;3.83;;;22.80;32.70;;;;;;6113827;28;82419;-60
2023/02/03 11:38:47;;;;;;;7.88;4.13;;;22.70;32.90;;;;;;6118097;28;80468;-61
2023/02/03 11:41:48;;;;;;;8.13;3.97;;;22.70;33.00;;;;;;6119271;28;82026;-61
2023/02/03 11:44:49;;;;;;;5.55;3.40;;;22.70;33.10;;;;;;6113684;28;81540;-59
2023/02/03 11:47:49;;;;;;;8.90;4.53;;;22.70;33.20;;;;;;6110623;28;80968;-58
2023/02/03 11:50:50;;;;;;;8.73;3.20;;;22.70;33.20;;;;;;6093337;28;81995;-59
2023/02/03 11:53:51;;;;;;;11.18;4.30;;;22.70;33.40;;;;;;6110265;28;81418;-58
2023/02/03 11:56:52;;;;;;;6.10;3.85;;;22.70;33.50;;;;;;6108509;28;80534;-59
2023/02/03 11:59:52;;;;;;;8.65;4.60;;;22.70;33.50;;;;;;6119067;28;80946;-60
2023/02/03 12:02:53;;;;;;;7.82;3.97;;;22.80;33.60;;;;;;6106254;28;81473;-60
2023/02/03 12:05:53;;;;;;;7.07;3.88;;;22.80;33.70;;;;;;6114174;28;80476;-60
2023/02/03 12:08:54;;;;;;;10.40;4.45;;;22.80;33.90;;;;;;6108694;28;82743;-60
2023/02/03 12:11:54;;;;;;;6.10;4.00;;;22.80;34.00;;;;;;6118216;28;82115;-60
2023/02/03 12:14:54;;;;;;;7.07;4.20;;;22.80;34.20;;;;;;6108174;28;80076;-63
2023/02/03 12:17:55;;;;;;;10.77;4.32;;;22.80;34.30;;;;;;6109058;28;81754;-61
2023/02/03 12:20:55;;;;;;;7.97;4.20;;;22.80;34.40;;;;;;6117362;28;80408;-63
2023/02/03 12:23:56;;;;;;;8.60;4.10;;;22.80;34.20;;;;;;6134967;28;79953;-63
2023/02/03 12:26:57;;;;;;;7.80;4.57;;;22.80;34.10;;;;;;6128861;28;80304;-59
2023/02/03 12:29:57;;;;;;;7.53;4.38;;;22.80;34.30;;;;;;6115744;28;81842;-59
2023/02/03 12:32:58;;;;;;;8.35;4.40;;;22.80;34.70;;;;;;6132222;28;81855;-58
2023/02/03 12:35:58;;;;;;;9.25;4.85;;;22.80;35.40;;;;;;6133097;28;80237;-63
2023/02/03 12:38:59;;;;;;;7.75;4.53;;;22.80;35.60;;;;;;6111504;28;86282;-62
2023/02/03 12:42:00;;;;;;;13.20;5.50;;;22.80;36.00;;;;;;6112146;28;81592;-59
2023/02/03 12:45:00;;;;;;;79.45;63.03;;;22.80;36.50;;;;;;6101635;28;80635;-60
2023/02/03 12:48:01;;;;;;;174.60;141.60;;;22.90;38.40;;;;;;6113417;28;83257;-63
2023/02/03 12:51:01;;;;;;;308.23;225.90;;;23.00;37.90;;;;;;6110554;28;85656;-65
2023/02/03 12:54:02;;;;;;;422.60;300.02;;;23.00;37.80;;;;;;6103395;28;85511;-63
2023/02/03 12:57:02;;;;;;;416.13;308.60;;;23.00;37.70;;;;;;6111259;28;87186;-64
2023/02/03 13:00:03;;;;;;;317.23;242.85;;;23.20;37.50;;;;;;6107823;28;86839;-64
2023/02/03 13:03:03;;;;;;;228.13;161.70;;;23.30;37.20;;;;;;6112764;28;85567;-63
2023/02/03 13:06:04;;;;;;;179.48;132.15;;;23.30;37.00;;;;;;6113335;28;86215;-65
2023/02/03 13:09:05;;;;;;;145.48;104.80;;;23.30;36.90;;;;;;6100664;28;86745;-62
2023/02/03 13:12:05;;;;;;;118.57;83.00;;;23.20;36.60;;;;;;6098307;28;86493;-62
2023/02/03 13:15:06;;;;;;;95.65;66.10;;;23.10;36.70;;;;;;6108271;28;85324;-62
2023/02/03 13:18:06;;;;;;;75.40;50.13;;;23.10;36.60;;;;;;6138522;28;83043;-63
2023/02/03 13:21:07;;;;;;;55.05;37.33;;;23.10;36.50;;;;;;6087076;28;88728;-61
2023/02/03 13:24:07;;;;;;;41.67;28.92;;;23.00;36.40;;;;;;6112921;28;82761;-65
2023/02/03 13:27:08;;;;;;;34.20;23.33;;;23.00;36.30;;;;;;6103906;28;85542;-63
2023/02/03 13:30:08;;;;;;;25.98;18.40;;;23.00;36.40;;;;;;6114991;28;84351;-64
2023/02/03 13:33:09;;;;;;;22.20;15.23;;;23.00;36.60;;;;;;6114130;28;83685;-62
2023/02/03 13:36:09;;;;;;;18.45;12.30;;;23.00;36.50;;;;;;6120313;28;83535;-65
2023/02/03 13:39:10;;;;;;;14.55;10.45;;;23.00;36.60;;;;;;6111048;28;82957;-63
2023/02/03 13:42:11;;;;;;;17.17;10.20;;;23.00;36.50;;;;;;6121710;28;84068;-63
2023/02/03 13:45:12;;;;;;;11.32;8.30;;;22.90;36.50;;;;;;6117558;28;83087;-63
2023/02/03 13:48:12;;;;;;;9.80;6.95;;;22.90;36.30;;;;;;6117782;28;83045;-63
2023/02/03 13:51:13;;;;;;;9.88;6.80;;;22.90;36.20;;;;;;6121824;28;81684;-63
2023/02/03 13:54:13;;;;;;;8.63;6.78;;;22.80;36.00;;;;;;6121189;28;80527;-63
2023/02/03 13:57:14;;;;;;;8.05;5.95;;;22.80;35.80;;;;;;6108750;28;80879;-63
2023/02/03 14:00:14;;;;;;;7.88;5.57;;;22.80;35.80;;;;;;6106928;28;80462;-63
2023/02/03 14:03:15;;;;;;;6.85;4.75;;;22.70;35.70;;;;;;6113196;28;81989;-62
2023/02/03 14:06:15;;;;;;;7.65;4.47;;;22.70;35.60;;;;;;6095851;28;85571;-63
2023/02/03 14:09:16;;;;;;;6.18;4.53;;;22.70;35.60;;;;;;6128764;28;80480;-62
2023/02/03 14:12:16;;;;;;;7.68;4.72;;;22.60;35.60;;;;;;6124319;28;80952;-62
2023/02/03 14:15:17;;;;;;;6.95;3.90;;;22.60;35.70;;;;;;6107809;28;81032;-62
2023/02/03 14:18:17;;;;;;;5.88;4.00;;;22.60;35.60;;;;;;6104535;28;85838;-63
2023/02/03 14:21:18;;;;;;;5.35;3.30;;;22.60;35.80;;;;;;6125517;28;80216;-62
2023/02/03 14:24:18;;;;;;;4.20;2.97;;;22.50;35.80;;;;;;6124287;28;85228;-61
2023/02/03 14:27:19;;;;;;;5.50;3.45;;;22.50;36.00;;;;;;6132321;28;80657;-60
2023/02/03 14:30:19;;;;;;;4.60;3.28;;;22.50;36.60;;;;;;6124902;28;80347;-61
2023/02/03 14:33:24;;;;;;;6.72;3.72;;;22.50;37.50;;;;;;6110034;28;81606;-61
2023/02/03 14:36:24;;;;;;;5.53;3.30;;;22.40;37.70;;;;;;6110193;28;81448;-63
2023/02/03 14:39:25;;;;;;;5.00;3.05;;;22.40;38.70;;;;;;6134862;28;83542;-59
2023/02/03 14:42:26;;;;;;;3.83;2.97;;;22.40;39.00;;;;;;6117690;28;81059;-59
2023/02/03 14:45:26;;;;;;;5.63;2.90;;;22.40;39.20;;;;;;6119483;28;80614;-60
2023/02/03 14:48:27;;;;;;;4.55;3.05;;;22.40;39.40;;;;;;6114083;28;80404;-59
2023/02/03 14:51:28;;;;;;;5.57;3.30;;;22.40;39.10;;;;;;6120203;28;81030;-60
2023/02/03 14:54:28;;;;;;;17.25;9.95;;;22.40;39.20;;;;;;6121816;28;80937;-60
2023/02/03 14:57:29;;;;;;;43.35;23.80;;;22.40;39.00;;;;;;6114397;28;80558;-61
2023/02/03 15:00:30;;;;;;;94.47;49.45;;;22.40;39.00;;;;;;6107226;28;83969;-60
2023/02/03 15:03:30;;;;;;;124.75;64.90;;;22.40;38.70;;;;;;6108090;28;89095;-60
2023/02/03 15:06:31;;;;;;;173.75;87.47;;;22.40;38.60;;;;;;6107836;28;83381;-60
2023/02/03 15:09:31;;;;;;;210.45;106.28;;;22.40;38.60;;;;;;6106447;28;85773;-61
2023/02/03 15:12:32;;;;;;;287.17;136.65;;;22.30;38.50;;;;;;6134554;28;89093;-61
2023/02/03 15:15:32;;;;;;;246.10;116.85;;;22.30;38.40;;;;;;6119679;28;90022;-61
2023/02/03 15:18:34;;;;;;;224.60;106.38;;;22.30;38.30;;;;;;6111547;28;88359;-64
2023/02/03 15:21:35;;;;;;;200.95;98.93;;;22.40;38.20;;;;;;6109180;28;86573;-65
2023/02/03 15:24:35;;;;;;;163.15;81.00;;;22.50;38.10;;;;;;6114247;28;85620;-65
2023/02/03 15:27:36;;;;;;;147.85;70.22;;;22.50;38.30;;;;;;6113917;28;83321;-63
2023/02/03 15:30:36;;;;;;;136.48;66.20;;;22.60;38.00;;;;;;6114380;28;83388;-63
2023/02/03 15:33:37;;;;;;;119.63;55.58;;;22.60;37.70;;;;;;6113301;28;83015;-58
2023/02/03 15:36:38;;;;;;;102.03;47.63;;;22.70;37.50;;;;;;6113031;28;83081;-59
2023/02/03 15:39:38;;;;;;;95.18;43.38;;;22.70;37.30;;;;;;6116289;28;84464;-61